createdAt,value
2017-12-30T00:00:16.720Z,93.70
2017-12-30T00:01:19.232Z,93.50
2017-12-30T00:02:21.751Z,93.50
2017-12-30T00:03:24.268Z,93.50
2017-12-30T00:04:27.553Z,93.60
2017-12-30T00:05:30.876Z,93.50
2017-12-30T00:06:33.388Z,93.50
2017-12-30T00:07:35.906Z,93.60
2017-12-30T00:08:38.408Z,93.60
2017-12-30T00:09:40.932Z,93.60
2017-12-30T00:10:43.498Z,93.50
2017-12-30T00:11:46.005Z,93.60
2017-12-30T00:12:48.503Z,93.70
2017-12-30T00:13:51.784Z,93.60
2017-12-30T00:14:55.064Z,93.60
2017-12-30T00:15:58.388Z,93.60
2017-12-30T00:17:00.909Z,93.60
2017-12-30T00:18:04.195Z,93.70
2017-12-30T00:19:07.509Z,93.80
2017-12-30T00:20:10.023Z,93.80
2017-12-30T00:21:12.561Z,93.70
2017-12-30T00:22:15.076Z,93.60
2017-12-30T00:23:18.396Z,93.70
2017-12-30T00:24:20.997Z,93.70
2017-12-30T00:25:23.489Z,93.90
2017-12-30T00:26:26.805Z,94.10
2017-12-30T00:27:29.366Z,93.80
2017-12-30T00:28:31.877Z,93.70
2017-12-30T00:29:34.395Z,93.80
2017-12-30T00:30:36.913Z,93.70
2017-12-30T00:31:39.423Z,93.60
2017-12-30T00:32:41.968Z,93.60
2017-12-30T00:33:45.249Z,93.70
2017-12-30T00:34:47.770Z,93.60
2017-12-30T00:35:50.279Z,93.50
2017-12-30T00:36:52.788Z,93.60
2017-12-30T00:37:55.328Z,93.50
2017-12-30T00:38:58.622Z,93.20
2017-12-30T00:40:01.140Z,93.20
2017-12-30T00:41:03.663Z,93.10
2017-12-30T00:42:06.173Z,93.00
2017-12-30T00:43:08.720Z,93.10
2017-12-30T00:44:11.234Z,93.10
2017-12-30T00:45:14.525Z,93.20
2017-12-30T00:46:17.865Z,93.20
2017-12-30T00:47:20.397Z,93.20
2017-12-30T00:48:23.064Z,93.20
2017-12-30T00:49:25.573Z,93.20
2017-12-30T00:50:28.089Z,93.00
2017-12-30T00:51:30.598Z,93.20
2017-12-30T00:52:33.117Z,93.10
2017-12-30T00:53:35.661Z,93.10
2017-12-30T00:54:38.943Z,93.20
2017-12-30T00:55:41.546Z,93.10
2017-12-30T00:56:44.067Z,93.20
2017-12-30T00:57:47.360Z,93.10
2017-12-30T00:58:49.914Z,93.10
2017-12-30T00:59:52.439Z,93.10
2017-12-30T01:00:54.952Z,93.10
2017-12-30T01:01:57.464Z,93.00
2017-12-30T01:02:59.973Z,92.90
2017-12-30T01:04:02.517Z,92.90
2017-12-30T01:05:05.033Z,92.90
2017-12-30T01:06:08.336Z,92.90
2017-12-30T01:07:10.868Z,92.90
2017-12-30T01:08:13.401Z,92.90
2017-12-30T01:09:15.956Z,92.90
2017-12-30T01:10:18.489Z,92.80
2017-12-30T01:11:20.993Z,92.80
2017-12-30T01:12:23.500Z,92.80
2017-12-30T01:13:26.796Z,92.70
2017-12-30T01:14:30.120Z,92.60
2017-12-30T01:15:32.623Z,92.60
2017-12-30T01:16:35.144Z,92.70
2017-12-30T01:17:37.657Z,92.70
2017-12-30T01:18:40.181Z,92.60
2017-12-30T01:19:42.728Z,92.50
2017-12-30T01:20:45.240Z,92.60
2017-12-30T01:21:47.751Z,92.60
2017-12-30T01:22:50.301Z,92.60
2017-12-30T01:23:53.581Z,92.60
2017-12-30T01:24:56.851Z,92.60
2017-12-30T01:25:59.396Z,92.60
2017-12-30T01:27:01.964Z,92.60
2017-12-30T01:28:04.480Z,92.50
2017-12-30T01:29:06.998Z,92.70
2017-12-30T01:30:09.508Z,92.50
2017-12-30T01:31:12.775Z,92.50
2017-12-30T01:32:16.088Z,92.50
2017-12-30T01:33:18.599Z,92.50
2017-12-30T01:34:21.222Z,92.40
2017-12-30T01:35:23.761Z,92.30
2017-12-30T01:36:27.037Z,92.40
2017-12-30T01:37:29.562Z,92.40
2017-12-30T01:38:32.073Z,92.70
2017-12-30T01:39:35.358Z,92.40
2017-12-30T01:40:38.673Z,92.40
2017-12-30T01:41:41.224Z,92.40
2017-12-30T01:42:43.748Z,92.30
2017-12-30T01:43:46.261Z,92.30
2017-12-30T01:44:48.807Z,92.30
2017-12-30T01:45:52.085Z,92.20
2017-12-30T01:46:55.366Z,92.60
2017-12-30T01:47:58.641Z,92.40
2017-12-30T01:49:04.146Z,92.40
2017-12-30T01:50:06.662Z,92.20
2017-12-30T01:51:09.940Z,92.20
2017-12-30T01:52:13.257Z,92.10
2017-12-30T01:53:15.777Z,92.10
2017-12-30T01:54:18.332Z,92.10
2017-12-30T01:55:20.853Z,92.20
2017-12-30T01:56:23.383Z,92.10
2017-12-30T01:57:25.897Z,92.20
2017-12-30T01:58:28.440Z,92.30
2017-12-30T01:59:30.997Z,92.20
2017-12-30T02:00:34.281Z,92.40
2017-12-30T02:01:37.557Z,92.60
2017-12-30T02:02:40.823Z,92.50
2017-12-30T02:03:43.331Z,92.50
2017-12-30T02:04:45.885Z,92.50
2017-12-30T02:05:48.466Z,92.40
2017-12-30T02:06:50.981Z,92.40
2017-12-30T02:07:53.484Z,92.40
2017-12-30T02:08:56.009Z,92.50
2017-12-30T02:09:58.558Z,92.40
2017-12-30T02:11:01.076Z,92.80
2017-12-30T02:12:04.400Z,92.40
2017-12-30T02:13:06.908Z,92.40
2017-12-30T02:14:09.424Z,92.40
2017-12-30T02:15:11.968Z,92.40
2017-12-30T02:16:14.505Z,92.20
2017-12-30T02:17:17.049Z,92.20
2017-12-30T02:18:19.572Z,92.50
2017-12-30T02:19:22.088Z,92.20
2017-12-30T02:20:24.650Z,92.30
2017-12-30T02:21:27.161Z,92.40
2017-12-30T02:22:29.672Z,92.40
2017-12-30T02:23:32.192Z,92.30
2017-12-30T02:24:34.704Z,92.30
2017-12-30T02:25:37.252Z,92.30
2017-12-30T02:26:39.769Z,92.20
2017-12-30T02:27:43.052Z,92.20
2017-12-30T02:28:46.332Z,92.50
2017-12-30T02:29:49.653Z,92.60
2017-12-30T02:30:52.182Z,92.30
2017-12-30T02:31:55.452Z,92.50
2017-12-30T02:32:58.005Z,92.30
2017-12-30T02:34:00.522Z,92.40
2017-12-30T02:35:03.037Z,92.30
2017-12-30T02:36:05.552Z,92.30
2017-12-30T02:37:08.067Z,92.30
2017-12-30T02:38:10.609Z,92.40
2017-12-30T02:39:13.148Z,92.30
2017-12-30T02:40:15.740Z,92.30
2017-12-30T02:41:18.254Z,92.40
2017-12-30T02:42:20.797Z,92.40
2017-12-30T02:43:23.305Z,92.50
2017-12-30T02:44:26.618Z,92.40
2017-12-30T02:45:29.129Z,92.40
2017-12-30T02:46:31.655Z,92.50
2017-12-30T02:47:34.164Z,92.40
2017-12-30T02:48:36.706Z,92.50
2017-12-30T02:49:39.222Z,92.40
2017-12-30T02:50:42.532Z,92.40
2017-12-30T02:51:45.044Z,92.40
2017-12-30T02:52:47.567Z,92.40
2017-12-30T02:53:50.137Z,92.40
2017-12-30T02:54:52.661Z,92.30
2017-12-30T02:55:55.944Z,92.30
2017-12-30T02:56:59.226Z,92.30
2017-12-30T02:58:02.514Z,92.50
2017-12-30T02:59:05.818Z,92.50
2017-12-30T03:00:08.329Z,92.50
2017-12-30T03:01:10.892Z,92.30
2017-12-30T03:02:13.404Z,92.30
2017-12-30T03:03:15.921Z,92.50
2017-12-30T03:04:18.443Z,92.50
2017-12-30T03:05:20.957Z,92.30
2017-12-30T03:06:23.522Z,92.20
2017-12-30T03:07:26.047Z,92.30
2017-12-30T03:08:28.574Z,92.30
2017-12-30T03:09:31.089Z,92.30
2017-12-30T03:10:33.604Z,92.40
2017-12-30T03:11:36.146Z,92.30
2017-12-30T03:12:38.653Z,92.00
2017-12-30T03:13:41.940Z,92.10
2017-12-30T03:14:45.220Z,92.10
2017-12-30T03:15:48.496Z,92.20
2017-12-30T03:16:51.811Z,92.20
2017-12-30T03:17:54.352Z,92.10
2017-12-30T03:18:57.632Z,92.10
2017-12-30T03:20:00.910Z,92.10
2017-12-30T03:21:04.227Z,92.10
2017-12-30T03:22:06.788Z,92.00
2017-12-30T03:23:09.343Z,92.00
2017-12-30T03:24:12.809Z,92.10
2017-12-30T03:25:15.330Z,92.10
2017-12-30T03:26:17.965Z,92.00
2017-12-30T03:27:21.243Z,92.00
2017-12-30T03:28:24.560Z,92.00
2017-12-30T03:29:27.074Z,92.00
2017-12-30T03:30:29.600Z,91.90
2017-12-30T03:31:32.118Z,92.00
2017-12-30T03:32:35.433Z,92.10
2017-12-30T03:33:38.000Z,92.10
2017-12-30T03:34:40.513Z,92.10
2017-12-30T03:35:43.040Z,92.10
2017-12-30T03:36:45.558Z,92.10
2017-12-30T03:37:48.162Z,92.10
2017-12-30T03:38:50.712Z,92.10
2017-12-30T03:39:53.988Z,92.20
2017-12-30T03:40:57.295Z,92.30
2017-12-30T03:41:59.813Z,92.30
2017-12-30T03:43:02.320Z,92.20
2017-12-30T03:44:04.864Z,92.10
2017-12-30T03:45:08.132Z,92.10
2017-12-30T03:46:10.692Z,92.10
2017-12-30T03:47:13.197Z,92.10
2017-12-30T03:48:15.752Z,92.10
2017-12-30T03:49:19.037Z,92.10
2017-12-30T03:50:22.314Z,92.10
2017-12-30T03:51:25.636Z,92.10
2017-12-30T03:52:28.148Z,92.10
2017-12-30T03:53:30.660Z,92.10
2017-12-30T03:54:33.170Z,92.10
2017-12-30T03:55:35.683Z,92.10
2017-12-30T03:56:38.239Z,92.10
2017-12-30T03:57:41.516Z,92.10
2017-12-30T03:58:44.791Z,92.20
2017-12-30T03:59:48.077Z,92.30
2017-12-30T04:00:51.358Z,92.20
2017-12-30T04:01:54.660Z,92.20
2017-12-30T04:02:57.182Z,92.20
2017-12-30T04:03:59.692Z,92.20
2017-12-30T04:05:02.200Z,92.20
2017-12-30T04:06:04.729Z,92.30
2017-12-30T04:07:07.286Z,92.20
2017-12-30T04:08:10.570Z,92.30
2017-12-30T04:09:13.848Z,92.30
2017-12-30T04:10:17.120Z,92.40
2017-12-30T04:11:20.418Z,92.40
2017-12-30T04:12:23.740Z,92.30
2017-12-30T04:13:26.252Z,92.20
2017-12-30T04:14:29.544Z,92.30
2017-12-30T04:15:32.829Z,92.30
2017-12-30T04:16:36.122Z,92.20
2017-12-30T04:17:39.465Z,92.20
2017-12-30T04:18:41.973Z,92.20
2017-12-30T04:19:45.249Z,92.10
2017-12-30T04:20:48.565Z,92.20
2017-12-30T04:21:51.120Z,92.10
2017-12-30T04:22:53.634Z,92.20
2017-12-30T04:23:56.154Z,92.10
2017-12-30T04:24:58.720Z,92.10
2017-12-30T04:26:01.265Z,92.30
2017-12-30T04:27:04.549Z,92.20
2017-12-30T04:28:07.830Z,92.20
2017-12-30T04:29:11.112Z,92.20
2017-12-30T04:30:14.428Z,92.20
2017-12-30T04:31:16.941Z,92.20
2017-12-30T04:32:19.468Z,92.00
2017-12-30T04:33:21.988Z,92.00
2017-12-30T04:34:25.264Z,92.00
2017-12-30T04:35:27.816Z,91.90
2017-12-30T04:36:30.337Z,92.00
2017-12-30T04:37:32.844Z,92.00
2017-12-30T04:38:35.356Z,92.00
2017-12-30T04:39:37.907Z,92.00
2017-12-30T04:40:40.457Z,91.80
2017-12-30T04:41:42.976Z,91.90
2017-12-30T04:42:45.496Z,91.80
2017-12-30T04:43:48.774Z,91.90
2017-12-30T04:44:51.334Z,91.80
2017-12-30T04:45:53.854Z,91.80
2017-12-30T04:46:56.373Z,91.70
2017-12-30T04:47:58.880Z,91.70
2017-12-30T04:49:01.416Z,91.80
2017-12-30T04:50:04.744Z,92.00
2017-12-30T04:51:07.269Z,91.70
2017-12-30T04:52:10.566Z,91.70
2017-12-30T04:53:13.082Z,91.70
2017-12-30T04:54:15.589Z,91.60
2017-12-30T04:55:18.913Z,91.60
2017-12-30T04:56:21.430Z,91.60
2017-12-30T04:57:24.710Z,91.50
2017-12-30T04:58:28.028Z,91.60
2017-12-30T04:59:30.548Z,91.60
2017-12-30T05:00:33.080Z,91.60
2017-12-30T05:01:35.598Z,91.60
2017-12-30T05:02:38.885Z,91.70
2017-12-30T05:03:42.205Z,91.70
2017-12-30T05:04:44.719Z,91.70
2017-12-30T05:05:48.008Z,91.50
2017-12-30T05:06:51.290Z,91.70
2017-12-30T05:07:54.603Z,92.00
2017-12-30T05:08:57.125Z,91.70
2017-12-30T05:09:59.681Z,91.70
2017-12-30T05:11:02.195Z,91.80
2017-12-30T05:12:04.729Z,91.70
2017-12-30T05:13:07.246Z,91.70
2017-12-30T05:14:09.788Z,91.70
2017-12-30T05:15:13.067Z,91.60
2017-12-30T05:16:16.348Z,91.70
2017-12-30T05:17:19.633Z,91.60
2017-12-30T05:18:22.988Z,91.60
2017-12-30T05:19:25.545Z,91.60
2017-12-30T05:20:28.062Z,91.60
2017-12-30T05:21:30.582Z,91.60
2017-12-30T05:22:33.097Z,91.60
2017-12-30T05:23:35.612Z,91.60
2017-12-30T05:24:38.234Z,91.60
2017-12-30T05:25:40.752Z,91.60
2017-12-30T05:26:43.269Z,91.60
2017-12-30T05:27:45.776Z,91.60
2017-12-30T05:28:48.284Z,91.70
2017-12-30T05:29:50.832Z,91.80
2017-12-30T05:30:54.147Z,91.90
2017-12-30T05:31:56.713Z,91.80
2017-12-30T05:32:59.229Z,91.80
2017-12-30T05:34:01.748Z,91.80
2017-12-30T05:35:04.260Z,91.80
2017-12-30T05:36:06.864Z,91.90
2017-12-30T05:37:10.137Z,92.10
2017-12-30T05:38:13.433Z,91.80
2017-12-30T05:39:15.944Z,91.80
2017-12-30T05:40:18.463Z,91.70
2017-12-30T05:41:21.786Z,91.80
2017-12-30T05:42:24.310Z,91.80
2017-12-30T05:43:27.591Z,91.90
2017-12-30T05:45:39.851Z,92.00
2017-12-30T05:46:42.403Z,92.00
2017-12-30T05:47:44.921Z,92.00
2017-12-30T05:48:48.204Z,92.00
2017-12-30T05:49:51.487Z,91.90
2017-12-30T05:50:54.764Z,92.10
2017-12-30T05:51:58.093Z,91.80
2017-12-30T05:53:00.612Z,91.80
2017-12-30T05:54:03.907Z,91.80
2017-12-30T05:55:07.196Z,91.80
2017-12-30T05:56:09.712Z,91.70
2017-12-30T05:57:12.260Z,91.80
2017-12-30T05:58:14.792Z,91.80
2017-12-30T05:59:18.078Z,91.90
2017-12-30T06:00:20.600Z,91.90
2017-12-30T06:01:23.104Z,92.00
2017-12-30T06:02:26.480Z,91.70
2017-12-30T06:03:29.806Z,91.60
2017-12-30T06:04:32.407Z,91.60
2017-12-30T06:05:34.924Z,91.60
2017-12-30T06:06:37.445Z,91.60
2017-12-30T06:07:39.955Z,91.60
2017-12-30T06:08:42.504Z,91.50
2017-12-30T06:09:45.785Z,91.70
2017-12-30T06:10:49.076Z,91.60
2017-12-30T06:11:52.365Z,91.60
2017-12-30T06:12:54.877Z,91.60
2017-12-30T06:13:57.432Z,91.50
2017-12-30T06:14:59.947Z,91.30
2017-12-30T06:16:03.237Z,91.10
2017-12-30T06:17:06.528Z,91.10
2017-12-30T06:18:09.052Z,91.10
2017-12-30T06:19:11.604Z,91.20
2017-12-30T06:20:14.128Z,91.00
2017-12-30T06:21:16.648Z,90.90
2017-12-30T06:22:19.161Z,90.80
2017-12-30T06:23:21.712Z,90.80
2017-12-30T06:24:24.988Z,90.40
2017-12-30T06:25:28.280Z,90.40
2017-12-30T06:26:31.556Z,90.60
2017-12-30T06:27:34.844Z,90.50
2017-12-30T06:28:38.164Z,90.30
2017-12-30T06:29:40.704Z,90.30
2017-12-30T06:30:43.985Z,90.20
2017-12-30T06:31:47.275Z,90.00
2017-12-30T06:32:49.804Z,90.10
2017-12-30T06:33:52.373Z,90.20
2017-12-30T06:34:54.888Z,90.10
2017-12-30T06:35:57.405Z,90.20
2017-12-30T06:36:59.920Z,90.10
2017-12-30T06:38:02.432Z,89.80
2017-12-30T06:39:04.968Z,90.20
2017-12-30T06:40:07.505Z,90.00
2017-12-30T06:41:10.021Z,89.90
2017-12-30T06:42:12.647Z,90.00
2017-12-30T06:43:15.165Z,89.80
2017-12-30T06:44:17.684Z,89.80
2017-12-30T06:45:20.228Z,89.50
2017-12-30T06:46:23.590Z,89.90
2017-12-30T06:47:26.874Z,90.00
2017-12-30T06:48:29.426Z,90.00
2017-12-30T06:49:31.944Z,90.00
2017-12-30T06:50:34.485Z,89.60
2017-12-30T06:51:37.008Z,89.50
2017-12-30T06:52:39.524Z,89.50
2017-12-30T06:53:42.800Z,89.70
2017-12-30T06:54:46.118Z,89.50
2017-12-30T06:55:48.661Z,89.50
2017-12-30T06:56:51.940Z,89.50
2017-12-30T06:57:55.233Z,89.70
2017-12-30T06:58:57.792Z,89.60
2017-12-30T07:00:01.079Z,89.40
2017-12-30T07:01:04.359Z,89.20
2017-12-30T07:02:07.634Z,89.20
2017-12-30T07:03:10.919Z,89.40
2017-12-30T07:04:13.496Z,89.40
2017-12-30T07:05:16.018Z,89.40
2017-12-30T07:06:18.529Z,89.40
2017-12-30T07:07:21.816Z,89.30
2017-12-30T07:08:24.329Z,89.30
2017-12-30T07:09:26.873Z,89.80
2017-12-30T07:10:29.414Z,89.60
2017-12-30T07:11:31.932Z,89.20
2017-12-30T07:12:34.450Z,89.00
2017-12-30T07:13:37.000Z,88.90
2017-12-30T07:14:40.276Z,88.90
2017-12-30T07:15:43.561Z,88.90
2017-12-30T07:16:46.886Z,88.90
2017-12-30T07:17:49.407Z,88.90
2017-12-30T07:18:51.924Z,88.90
2017-12-30T07:19:54.444Z,89.00
2017-12-30T07:20:57.792Z,89.50
2017-12-30T07:22:00.345Z,89.60
2017-12-30T07:23:02.881Z,90.00
2017-12-30T07:24:05.392Z,90.20
2017-12-30T07:25:07.920Z,90.10
2017-12-30T07:26:10.481Z,90.10
2017-12-30T07:27:12.995Z,90.20
2017-12-30T07:28:15.516Z,90.20
2017-12-30T07:29:18.028Z,90.30
2017-12-30T07:30:20.549Z,90.30
2017-12-30T07:31:23.108Z,90.50
2017-12-30T07:32:25.693Z,90.40
2017-12-30T07:33:28.200Z,90.30
2017-12-30T07:34:30.729Z,90.30
2017-12-30T07:35:33.260Z,90.30
2017-12-30T07:36:36.602Z,90.60
2017-12-30T07:37:39.129Z,90.60
2017-12-30T07:38:41.645Z,90.40
2017-12-30T07:39:44.164Z,90.30
2017-12-30T07:40:46.676Z,90.20
2017-12-30T07:41:49.217Z,90.20
2017-12-30T07:42:51.769Z,90.30
2017-12-30T07:43:54.290Z,90.20
2017-12-30T07:44:56.803Z,90.20
2017-12-30T07:45:59.316Z,90.10
2017-12-30T07:47:01.832Z,90.20
2017-12-30T07:48:04.400Z,90.10
2017-12-30T07:49:06.908Z,90.20
2017-12-30T07:50:09.527Z,90.10
2017-12-30T07:51:12.155Z,90.20
2017-12-30T07:52:14.667Z,90.20
2017-12-30T07:53:17.209Z,90.70
2017-12-30T07:54:19.737Z,90.30
2017-12-30T07:55:22.252Z,90.20
2017-12-30T07:56:25.064Z,90.10
2017-12-30T07:57:27.590Z,90.10
2017-12-30T07:58:30.105Z,90.10
2017-12-30T07:59:32.624Z,90.20
2017-12-30T08:00:35.140Z,90.20
2017-12-30T08:01:37.704Z,90.10
2017-12-30T08:02:40.213Z,90.20
2017-12-30T08:03:42.734Z,90.50
2017-12-30T08:04:45.250Z,90.20
2017-12-30T08:05:47.762Z,90.30
2017-12-30T08:06:50.309Z,90.30
2017-12-30T08:07:52.828Z,90.50
2017-12-30T08:08:56.144Z,90.10
2017-12-30T08:09:58.666Z,90.10
2017-12-30T08:11:01.186Z,90.10
2017-12-30T08:12:03.724Z,90.20
2017-12-30T08:13:06.708Z,90.20
2017-12-30T08:14:09.224Z,90.10
2017-12-30T08:15:11.736Z,90.20
2017-12-30T08:16:14.256Z,90.00
2017-12-30T08:17:16.784Z,90.10
2017-12-30T08:18:19.340Z,89.90
2017-12-30T08:19:21.854Z,89.80
2017-12-30T08:20:24.377Z,89.90
2017-12-30T08:21:26.897Z,90.00
2017-12-30T08:22:29.440Z,90.00
2017-12-30T08:23:31.950Z,90.00
2017-12-30T08:24:34.510Z,90.10
2017-12-30T08:25:37.797Z,90.10
2017-12-30T08:26:41.076Z,90.00
2017-12-30T08:27:44.420Z,90.10
2017-12-30T08:28:46.928Z,90.10
2017-12-30T08:29:50.208Z,90.10
2017-12-30T08:30:53.500Z,90.10
2017-12-30T08:31:56.776Z,90.10
2017-12-30T08:33:00.101Z,90.10
2017-12-30T08:34:02.614Z,90.40
2017-12-30T08:36:14.732Z,90.10
2017-12-30T08:37:17.252Z,90.10
2017-12-30T08:38:19.793Z,90.20
2017-12-30T08:39:22.304Z,90.30
2017-12-30T08:40:24.913Z,90.30
2017-12-30T08:41:27.427Z,90.20
2017-12-30T08:42:29.976Z,90.30
2017-12-30T08:43:32.537Z,90.30
2017-12-30T08:44:35.061Z,90.30
2017-12-30T08:45:38.350Z,90.60
2017-12-30T08:46:40.870Z,90.60
2017-12-30T08:47:43.392Z,90.60
2017-12-30T08:48:45.956Z,90.70
2017-12-30T08:49:48.476Z,90.90
2017-12-30T08:50:51.093Z,90.90
2017-12-30T08:51:53.604Z,91.20
2017-12-30T08:52:56.130Z,91.00
2017-12-30T08:53:58.680Z,91.20
2017-12-30T08:55:01.194Z,91.50
2017-12-30T08:56:03.698Z,91.60
2017-12-30T08:57:06.976Z,91.60
2017-12-30T08:58:10.286Z,91.70
2017-12-30T08:59:12.801Z,91.70
2017-12-30T09:00:15.308Z,91.90
2017-12-30T09:01:17.853Z,91.90
2017-12-30T09:02:21.128Z,92.10
2017-12-30T09:03:23.653Z,92.10
2017-12-30T09:04:26.176Z,92.00
2017-12-30T09:05:29.480Z,92.40
2017-12-30T09:06:32.025Z,92.40
2017-12-30T09:07:35.313Z,92.50
2017-12-30T09:08:38.632Z,92.50
2017-12-30T09:09:41.143Z,92.50
2017-12-30T09:10:43.692Z,92.40
2017-12-30T09:11:46.200Z,92.90
2017-12-30T09:12:48.725Z,92.80
2017-12-30T09:13:51.293Z,92.80
2017-12-30T09:14:53.801Z,92.80
2017-12-30T09:15:56.320Z,92.80
2017-12-30T09:16:58.831Z,92.80
2017-12-30T09:18:02.106Z,92.80
2017-12-30T09:19:05.514Z,92.80
2017-12-30T09:20:08.021Z,92.80
2017-12-30T09:21:10.542Z,92.90
2017-12-30T09:22:13.082Z,92.90
2017-12-30T09:23:16.361Z,93.10
2017-12-30T09:24:19.689Z,93.10
2017-12-30T09:25:22.215Z,93.10
2017-12-30T09:26:25.492Z,93.10
2017-12-30T09:27:28.014Z,93.10
2017-12-30T09:28:30.552Z,93.40
2017-12-30T09:29:33.088Z,93.10
2017-12-30T09:30:36.369Z,93.10
2017-12-30T09:31:38.897Z,93.10
2017-12-30T09:32:41.429Z,93.20
2017-12-30T09:33:43.988Z,93.30
2017-12-30T09:34:47.274Z,93.90
2017-12-30T09:35:50.550Z,93.30
2017-12-30T09:36:53.838Z,93.30
2017-12-30T09:37:57.116Z,93.20
2017-12-30T09:39:00.432Z,93.40
2017-12-30T09:40:02.941Z,93.40
2017-12-30T09:41:05.506Z,93.40
2017-12-30T09:42:08.026Z,93.30
2017-12-30T09:43:10.590Z,93.20
2017-12-30T09:44:13.100Z,93.20
2017-12-30T09:45:15.616Z,93.40
2017-12-30T09:46:18.141Z,93.30
2017-12-30T09:47:20.688Z,93.30
2017-12-30T09:48:23.984Z,93.20
2017-12-30T09:49:26.503Z,93.20
2017-12-30T09:50:29.028Z,93.40
2017-12-30T09:51:31.528Z,93.50
2017-12-30T09:52:34.076Z,93.50
2017-12-30T09:53:37.362Z,93.50
2017-12-30T09:54:40.687Z,93.80
2017-12-30T09:55:43.208Z,93.70
2017-12-30T09:56:46.530Z,93.50
2017-12-30T09:57:49.045Z,93.50
2017-12-30T09:58:51.557Z,93.50
2017-12-30T09:59:54.064Z,93.60
2017-12-30T10:00:58.117Z,93.70
2017-12-30T10:02:00.668Z,93.70
2017-12-30T10:03:03.982Z,93.70
2017-12-30T10:04:06.505Z,93.70
2017-12-30T10:05:09.800Z,93.60
2017-12-30T10:06:13.095Z,93.50
2017-12-30T10:07:15.614Z,93.50
2017-12-30T10:08:18.189Z,93.70
2017-12-30T10:09:20.710Z,93.70
2017-12-30T10:10:23.232Z,93.50
2017-12-30T10:11:25.744Z,93.50
2017-12-30T10:12:28.264Z,93.60
2017-12-30T10:13:31.590Z,93.50
2017-12-30T10:14:34.131Z,93.50
2017-12-30T10:15:37.407Z,93.60
2017-12-30T10:16:40.717Z,93.80
2017-12-30T10:17:43.225Z,93.80
2017-12-30T10:18:45.793Z,93.70
2017-12-30T10:19:48.313Z,93.60
2017-12-30T10:20:50.825Z,93.90
2017-12-30T10:21:53.381Z,94.00
2017-12-30T10:22:55.901Z,94.00
2017-12-30T10:23:58.418Z,94.00
2017-12-30T10:25:00.933Z,93.90
2017-12-30T10:26:03.445Z,93.80
2017-12-30T10:27:05.980Z,93.80
2017-12-30T10:28:08.499Z,93.90
2017-12-30T10:29:11.053Z,93.90
2017-12-30T10:30:13.566Z,94.10
2017-12-30T10:31:16.072Z,93.80
2017-12-30T10:32:18.584Z,93.80
2017-12-30T10:33:21.870Z,93.60
2017-12-30T10:34:25.193Z,94.00
2017-12-30T10:35:27.734Z,93.80
2017-12-30T10:36:30.240Z,93.50
2017-12-30T10:37:32.753Z,93.70
2017-12-30T10:38:35.265Z,93.70
2017-12-30T10:39:37.820Z,93.60
2017-12-30T10:40:40.436Z,93.80
2017-12-30T10:41:43.716Z,93.80
2017-12-30T10:42:47.014Z,94.10
2017-12-30T10:43:50.296Z,94.00
2017-12-30T10:44:53.611Z,93.90
2017-12-30T10:45:56.155Z,93.90
2017-12-30T10:46:58.668Z,94.10
2017-12-30T10:48:01.189Z,94.30
2017-12-30T10:49:03.751Z,94.30
2017-12-30T10:50:06.277Z,94.30
2017-12-30T10:51:08.784Z,94.20
2017-12-30T10:52:11.298Z,94.40
2017-12-30T10:53:13.813Z,94.50
2017-12-30T10:54:17.109Z,94.30
2017-12-30T10:55:19.653Z,94.20
2017-12-30T10:56:22.929Z,94.10
2017-12-30T10:57:26.220Z,94.00
2017-12-30T10:58:29.510Z,94.00
2017-12-30T10:59:32.792Z,94.20
2017-12-30T11:00:41.861Z,94.20
2017-12-30T11:01:44.381Z,94.20
2017-12-30T11:02:47.672Z,94.20
2017-12-30T11:03:50.189Z,94.20
2017-12-30T11:04:52.705Z,94.10
2017-12-30T11:05:55.249Z,94.00
2017-12-30T11:06:58.550Z,94.10
2017-12-30T11:08:01.828Z,94.30
2017-12-30T11:09:05.120Z,94.50
2017-12-30T11:10:07.639Z,94.70
2017-12-30T11:11:10.180Z,94.40
2017-12-30T11:12:12.688Z,94.40
2017-12-30T11:13:15.196Z,94.50
2017-12-30T11:14:17.736Z,94.60
2017-12-30T11:15:21.016Z,94.30
2017-12-30T11:16:24.288Z,94.30
2017-12-30T11:17:26.793Z,94.30
2017-12-30T11:18:29.308Z,94.30
2017-12-30T11:19:31.872Z,94.30
2017-12-30T11:20:34.380Z,94.30
2017-12-30T11:21:36.894Z,94.20
2017-12-30T11:22:39.911Z,94.40
2017-12-30T11:23:43.197Z,94.50
2017-12-30T11:24:46.517Z,94.60
2017-12-30T11:25:49.026Z,94.60
2017-12-30T11:26:52.309Z,94.60
2017-12-30T11:27:54.832Z,94.60
2017-12-30T11:28:57.354Z,94.60
2017-12-30T11:30:00.664Z,94.40
2017-12-30T11:31:03.174Z,94.40
2017-12-30T11:32:05.737Z,94.30
2017-12-30T11:33:08.288Z,94.50
2017-12-30T11:34:10.821Z,94.60
2017-12-30T11:35:13.337Z,94.60
2017-12-30T11:36:15.844Z,94.70
2017-12-30T11:37:18.362Z,94.80
2017-12-30T11:38:20.918Z,94.80
2017-12-30T11:39:23.440Z,94.80
2017-12-30T11:40:26.716Z,94.90
2017-12-30T11:41:30.001Z,94.90
2017-12-30T11:42:33.285Z,95.00
2017-12-30T11:43:35.840Z,95.00
2017-12-30T11:44:38.357Z,95.00
2017-12-30T11:45:40.864Z,95.10
2017-12-30T11:46:43.376Z,94.80
2017-12-30T11:47:45.896Z,94.80
2017-12-30T11:48:48.445Z,94.80
2017-12-30T11:49:50.989Z,94.90
2017-12-30T11:50:53.508Z,94.80
2017-12-30T11:51:56.033Z,94.90
2017-12-30T11:52:58.544Z,94.90
2017-12-30T11:54:01.828Z,95.10
2017-12-30T11:55:05.161Z,95.00
2017-12-30T11:56:08.513Z,95.00
2017-12-30T11:57:11.033Z,95.00
2017-12-30T11:58:13.550Z,95.00
2017-12-30T11:59:16.085Z,95.10
2017-12-30T12:00:19.418Z,95.10
2017-12-30T12:01:21.924Z,95.10
2017-12-30T12:02:24.440Z,95.00
2017-12-30T12:03:27.002Z,95.10
2017-12-30T12:04:29.521Z,95.00
2017-12-30T12:05:32.029Z,94.80
2017-12-30T12:06:34.545Z,94.90
2017-12-30T12:07:37.083Z,94.90
2017-12-30T12:08:39.625Z,94.90
2017-12-30T12:09:42.141Z,94.90
2017-12-30T12:10:44.660Z,94.90
2017-12-30T12:11:47.173Z,94.90
2017-12-30T12:12:49.686Z,95.00
2017-12-30T12:13:52.240Z,95.00
2017-12-30T12:14:55.573Z,95.10
2017-12-30T12:15:58.085Z,95.10
2017-12-30T12:17:01.361Z,95.20
2017-12-30T12:18:04.671Z,95.70
2017-12-30T12:19:07.173Z,95.30
2017-12-30T12:20:09.724Z,95.40
2017-12-30T12:21:12.243Z,95.30
2017-12-30T12:22:15.526Z,95.30
2017-12-30T12:23:18.816Z,95.40
2017-12-30T12:24:22.106Z,95.50
2017-12-30T12:25:24.662Z,95.50
2017-12-30T12:26:27.954Z,95.60
2017-12-30T12:27:31.233Z,95.70
2017-12-30T12:28:34.513Z,95.70
2017-12-30T12:29:37.793Z,95.70
2017-12-30T12:30:41.121Z,95.80
2017-12-30T12:31:43.636Z,95.80
2017-12-30T12:32:46.332Z,95.80
2017-12-30T12:33:48.850Z,95.90
2017-12-30T12:34:51.356Z,95.90
2017-12-30T12:35:54.642Z,95.90
2017-12-30T12:36:57.917Z,95.90
2017-12-30T12:38:01.241Z,95.90
2017-12-30T12:39:03.750Z,95.90
2017-12-30T12:40:06.259Z,95.90
2017-12-30T12:41:08.772Z,95.90
2017-12-30T12:42:11.288Z,96.00
2017-12-30T12:43:13.824Z,96.00
2017-12-30T12:44:17.101Z,96.10
2017-12-30T12:45:19.615Z,96.10
2017-12-30T12:46:22.166Z,96.30
2017-12-30T12:47:24.689Z,96.20
2017-12-30T12:48:27.306Z,96.20
2017-12-30T12:49:29.833Z,96.50
2017-12-30T12:50:32.345Z,96.30
2017-12-30T12:51:34.884Z,96.70
2017-12-30T12:52:38.168Z,96.40
2017-12-30T12:53:41.452Z,96.30
2017-12-30T12:54:44.733Z,96.40
2017-12-30T12:55:48.008Z,96.40
2017-12-30T12:56:51.329Z,96.40
2017-12-30T12:57:53.837Z,96.40
2017-12-30T12:58:56.345Z,96.40
2017-12-30T12:59:58.862Z,96.50
2017-12-30T13:01:01.377Z,96.40
2017-12-30T13:02:03.933Z,96.40
2017-12-30T13:03:08.037Z,96.50
2017-12-30T13:04:11.318Z,96.40
2017-12-30T13:05:13.850Z,96.50
2017-12-30T13:06:16.357Z,96.60
2017-12-30T13:07:18.910Z,96.50
2017-12-30T13:08:22.196Z,96.60
2017-12-30T13:09:25.478Z,96.60
2017-12-30T13:10:28.753Z,96.50
2017-12-30T13:11:32.072Z,96.50
2017-12-30T13:12:34.597Z,96.50
2017-12-30T13:13:37.930Z,96.40
2017-12-30T13:14:40.450Z,96.40
2017-12-30T13:15:43.728Z,96.40
2017-12-30T13:16:46.242Z,96.40
2017-12-30T13:17:48.757Z,96.30
2017-12-30T13:18:51.319Z,96.20
2017-12-30T13:19:53.836Z,96.20
2017-12-30T13:20:56.393Z,96.20
2017-12-30T13:21:58.919Z,96.10
2017-12-30T13:23:01.454Z,96.20
2017-12-30T13:24:03.973Z,96.20
2017-12-30T13:25:07.253Z,96.10
2017-12-30T13:26:10.567Z,96.10
2017-12-30T13:27:13.126Z,96.10
2017-12-30T13:28:15.684Z,96.10
2017-12-30T13:29:18.196Z,96.10
2017-12-30T13:30:20.709Z,96.00